Time;durP1;ratioP1;P1;durP2;ratioP2;P2;SDS_P1;SDS_P2;PMS_P1;PMS_P2;Temp;Humidity;BMP_temperature;BMP_pressure;BME280_temperature;BME280_humidity;BME280_pressure;Samples;Min_cycle;Max_cycle;Signal;HPM_P1;HPM_P2
2021/01/29 00:00:24;;;;;;;1.98;1.40;;;24.70;30.20;;;;;;5031170;28;20399;-61
2021/01/29 00:02:54;;;;;;;3.33;1.63;;;24.80;30.90;;;;;;5031712;28;20391;-60
2021/01/29 00:05:23;;;;;;;2.97;1.40;;;24.80;30.30;;;;;;5031571;28;20421;-66
2021/01/29 00:07:49;;;;;;;2.10;1.30;;;24.70;30.30;;;;;;5031675;28;20391;-61
2021/01/29 00:10:16;;;;;;;2.20;1.20;;;24.70;30.30;;;;;;5031201;28;20956;-61
2021/01/29 00:12:42;;;;;;;2.00;1.25;;;24.70;30.20;;;;;;5031245;28;20391;-61
2021/01/29 00:15:09;;;;;;;2.13;1.30;;;24.70;30.40;;;;;;5031215;28;20414;-61
2021/01/29 00:17:35;;;;;;;2.70;1.50;;;24.70;30.50;;;;;;5031553;28;20387;-61
2021/01/29 00:20:01;;;;;;;1.57;1.10;;;24.70;30.50;;;;;;5031420;28;20398;-61
2021/01/29 00:22:26;;;;;;;3.08;1.17;;;24.60;30.40;;;;;;5030969;28;20432;-61
2021/01/29 00:24:52;;;;;;;2.50;1.30;;;24.60;30.40;;;;;;5030944;28;20478;-62
2021/01/29 00:27:18;;;;;;;2.13;1.10;;;24.60;30.40;;;;;;5030295;28;20905;-60
2021/01/29 00:29:44;;;;;;;1.90;1.17;;;24.60;30.50;;;;;;5029422;28;20418;-61
2021/01/29 00:32:09;;;;;;;1.60;0.93;;;24.60;30.60;;;;;;5028935;28;20449;-61
2021/01/29 00:34:35;;;;;;;2.03;1.00;;;24.60;30.60;;;;;;5032348;28;20391;-60
2021/01/29 00:37:01;;;;;;;1.10;0.80;;;24.60;30.50;;;;;;5024897;28;20806;-60
2021/01/29 00:39:29;;;;;;;1.40;0.90;;;24.60;30.50;;;;;;5031758;28;20883;-62
2021/01/29 00:41:55;;;;;;;1.33;0.90;;;24.60;30.70;;;;;;5032727;28;20399;-60
2021/01/29 00:44:21;;;;;;;1.85;0.80;;;24.50;30.70;;;;;;5031431;28;20399;-62
2021/01/29 00:46:47;;;;;;;1.50;0.80;;;24.60;30.70;;;;;;5035430;28;20720;-61
2021/01/29 00:49:13;;;;;;;2.10;0.97;;;24.50;30.60;;;;;;5030020;28;20429;-60
2021/01/29 00:51:39;;;;;;;1.98;0.88;;;24.40;30.70;;;;;;5033783;28;20387;-61
2021/01/29 00:54:05;;;;;;;1.20;0.80;;;24.50;31.20;;;;;;5032439;28;20461;-60
2021/01/29 00:56:31;;;;;;;1.50;0.75;;;24.50;31.40;;;;;;5033043;28;20391;-60
2021/01/29 00:58:56;;;;;;;1.00;0.60;;;24.50;31.50;;;;;;5033942;28;20433;-61
2021/01/29 01:01:22;;;;;;;1.63;0.60;;;24.50;31.60;;;;;;5033831;28;20810;-60
2021/01/29 01:03:48;;;;;;;1.40;0.70;;;24.50;31.60;;;;;;5033770;28;20429;-60
2021/01/29 01:06:14;;;;;;;1.60;0.68;;;24.50;31.70;;;;;;5033611;28;20441;-60
2021/01/29 01:08:40;;;;;;;1.05;0.60;;;24.50;31.80;;;;;;5033113;28;20883;-60
2021/01/29 01:11:06;;;;;;;0.90;0.57;;;24.50;31.90;;;;;;5038563;28;20484;-60
2021/01/29 01:13:32;;;;;;;1.52;0.70;;;24.50;32.00;;;;;;5033644;28;20406;-60
2021/01/29 01:15:57;;;;;;;1.90;0.70;;;24.50;32.30;;;;;;5033078;28;20402;-60
2021/01/29 01:18:23;;;;;;;1.03;0.60;;;24.50;31.70;;;;;;5033158;28;20929;-70
2021/01/29 01:20:50;;;;;;;1.05;0.70;;;24.40;31.50;;;;;;5040652;28;20409;-61
2021/01/29 01:23:15;;;;;;;0.77;0.50;;;24.40;32.20;;;;;;5033400;28;20732;-61
2021/01/29 01:25:41;;;;;;;1.20;0.60;;;24.40;31.40;;;;;;5023834;28;20413;-60
2021/01/29 01:28:07;;;;;;;0.80;0.60;;;24.30;31.30;;;;;;5033301;28;20387;-60
2021/01/29 01:30:37;;;;;;;1.10;0.50;;;24.30;31.30;;;;;;5032689;28;20862;-60
2021/01/29 01:33:03;;;;;;;0.90;0.50;;;24.30;31.30;;;;;;5030997;28;20430;-61
2021/01/29 01:35:29;;;;;;;1.15;0.63;;;24.30;31.40;;;;;;5033239;28;20887;-61
2021/01/29 01:37:56;;;;;;;0.80;0.50;;;24.30;31.20;;;;;;5023534;28;20398;-60
2021/01/29 01:40:27;;;;;;;0.80;0.50;;;24.30;31.20;;;;;;5032943;28;20415;-60
2021/01/29 01:42:52;;;;;;;0.80;0.50;;;24.20;31.20;;;;;;5032529;28;20932;-61
2021/01/29 01:45:27;;;;;;;0.83;0.50;;;24.20;32.00;;;;;;5033049;28;20403;-60
2021/01/29 01:48:04;;;;;;;1.13;0.50;;;24.20;31.30;;;;;;5033860;28;20486;-60
2021/01/29 01:50:35;;;;;;;1.33;0.60;;;24.20;31.50;;;;;;5033560;28;20442;-61
2021/01/29 01:53:22;;;;;;;0.63;0.47;;;24.10;31.50;;;;;;5034005;28;20386;-61
2021/01/29 01:55:53;;;;;;;1.75;0.50;;;24.10;31.60;;;;;;5034072;28;20891;-60
2021/01/29 01:58:19;;;;;;;1.10;0.50;;;24.10;31.40;;;;;;5033970;28;20398;-64
2021/01/29 02:00:45;;;;;;;1.23;0.60;;;24.00;31.40;;;;;;5033703;28;20399;-60
2021/01/29 02:03:21;;;;;;;1.33;0.70;;;24.00;31.50;;;;;;5033847;28;20414;-61
2021/01/29 02:05:48;;;;;;;0.70;0.50;;;24.00;31.40;;;;;;5033651;28;20434;-60
2021/01/29 02:08:17;;;;;;;1.00;0.60;;;23.90;31.30;;;;;;5033862;28;20412;-61
2021/01/29 02:10:43;;;;;;;0.85;0.68;;;23.90;31.40;;;;;;5033285;28;20398;-61
2021/01/29 02:13:09;;;;;;;0.80;0.50;;;23.90;31.50;;;;;;5033377;28;20390;-60
2021/01/29 02:15:39;;;;;;;0.80;0.50;;;23.90;31.30;;;;;;5033530;28;20906;-60
2021/01/29 02:18:22;;;;;;;0.80;0.50;;;23.80;31.40;;;;;;5033749;28;20387;-61
2021/01/29 02:20:56;;;;;;;0.70;0.43;;;23.90;31.40;;;;;;5033460;28;20886;-61
2021/01/29 02:23:49;;;;;;;1.00;0.60;;;23.70;31.30;;;;;;5033501;28;20399;-60
2021/01/29 02:26:54;;;;;;;0.70;0.50;;;23.80;31.40;;;;;;5033547;28;20879;-60
2021/01/29 02:29:37;;;;;;;0.40;0.30;;;23.70;31.30;;;;;;5033275;28;20461;-60
2021/01/29 02:32:36;;;;;;;0.70;0.40;;;23.70;31.40;;;;;;5032079;28;20399;-60
2021/01/29 02:35:37;;;;;;;0.60;0.40;;;23.70;31.40;;;;;;5033182;28;20426;-61
2021/01/29 02:38:17;;;;;;;0.50;0.30;;;23.60;31.40;;;;;;5033401;28;20425;-61
2021/01/29 02:41:19;;;;;;;1.13;0.50;;;23.60;31.30;;;;;;5032851;28;20383;-61
2021/01/29 02:44:22;;;;;;;0.60;0.40;;;23.60;31.40;;;;;;5033247;28;20411;-60
2021/01/29 02:46:53;;;;;;;0.50;0.40;;;23.50;31.40;;;;;;5032877;28;20423;-61
2021/01/29 02:49:46;;;;;;;0.60;0.40;;;23.50;32.00;;;;;;5032929;28;20483;-61
2021/01/29 02:52:23;;;;;;;0.57;0.40;;;23.40;31.30;;;;;;5032968;28;20392;-61
2021/01/29 02:54:59;;;;;;;0.45;0.30;;;23.40;31.40;;;;;;5031883;28;20390;-60
2021/01/29 02:57:54;;;;;;;0.60;0.43;;;23.40;31.40;;;;;;5033066;28;20392;-60
2021/01/29 03:00:44;;;;;;;0.50;0.40;;;23.40;31.50;;;;;;5027933;28;20399;-60
2021/01/29 03:03:24;;;;;;;0.45;0.40;;;23.30;31.40;;;;;;5032752;28;20860;-60
2021/01/29 03:06:13;;;;;;;0.70;0.40;;;23.30;31.50;;;;;;5032544;28;20478;-61
2021/01/29 03:09:10;;;;;;;0.60;0.30;;;23.30;31.50;;;;;;5032275;28;20623;-61
2021/01/29 03:11:53;;;;;;;0.80;0.30;;;23.30;31.50;;;;;;5031494;28;20403;-60
2021/01/29 03:14:33;;;;;;;0.40;0.30;;;23.20;31.40;;;;;;5031321;28;20457;-60
2021/01/29 03:17:17;;;;;;;0.30;0.25;;;23.20;31.60;;;;;;5032141;28;20433;-60
2021/01/29 03:20:10;;;;;;;0.45;0.30;;;23.20;31.60;;;;;;5032020;28;20417;-61
2021/01/29 03:22:42;;;;;;;0.40;0.20;;;23.10;31.50;;;;;;5030706;28;20431;-60
2021/01/29 03:25:23;;;;;;;0.40;0.30;;;23.10;31.60;;;;;;5032399;28;20863;-61
2021/01/29 03:28:07;;;;;;;0.40;0.30;;;23.10;31.60;;;;;;5032548;28;20396;-61
2021/01/29 03:30:37;;;;;;;0.50;0.32;;;23.00;31.60;;;;;;5030475;28;20894;-61
2021/01/29 03:33:06;;;;;;;0.50;0.22;;;23.00;31.60;;;;;;5047451;28;20886;-60
2021/01/29 03:35:36;;;;;;;0.47;0.38;;;23.00;31.70;;;;;;5032304;28;20399;-60
2021/01/29 03:38:05;;;;;;;0.32;0.30;;;23.00;31.60;;;;;;5032227;28;20392;-61
2021/01/29 03:40:31;;;;;;;0.50;0.30;;;22.90;31.70;;;;;;5031485;28;20391;-61
2021/01/29 03:43:05;;;;;;;0.52;0.30;;;22.90;31.70;;;;;;5031992;28;20395;-60
2021/01/29 03:45:49;;;;;;;0.47;0.25;;;22.90;31.70;;;;;;5032048;28;20397;-61
2021/01/29 03:48:27;;;;;;;0.30;0.30;;;22.90;31.80;;;;;;5032045;28;20474;-61
2021/01/29 03:51:04;;;;;;;0.40;0.30;;;22.90;31.80;;;;;;5031705;28;20479;-60
2021/01/29 03:53:53;;;;;;;0.43;0.30;;;22.80;31.70;;;;;;5031899;28;20940;-61
2021/01/29 03:56:33;;;;;;;0.40;0.30;;;22.80;31.80;;;;;;5031880;28;20394;-60
2021/01/29 03:59:15;;;;;;;0.30;0.25;;;22.80;31.80;;;;;;5031844;28;20390;-61
2021/01/29 04:02:08;;;;;;;0.30;0.20;;;22.80;31.90;;;;;;5031810;28;20393;-60
2021/01/29 04:05:01;;;;;;;0.40;0.30;;;22.80;31.80;;;;;;5031098;28;20458;-61
2021/01/29 04:07:48;;;;;;;0.50;0.20;;;22.80;32.00;;;;;;5028197;28;20406;-60
2021/01/29 04:10:16;;;;;;;0.30;0.20;;;22.70;31.90;;;;;;5031606;28;20423;-60
2021/01/29 04:13:10;;;;;;;0.30;0.20;;;22.70;32.00;;;;;;5031284;28;20390;-61
2021/01/29 04:15:49;;;;;;;0.28;0.20;;;22.70;31.90;;;;;;5031246;28;20383;-60
2021/01/29 04:18:22;;;;;;;0.32;0.20;;;22.60;32.00;;;;;;5031434;28;20851;-61
2021/01/29 04:21:14;;;;;;;0.40;0.30;;;22.60;32.00;;;;;;5031465;28;20391;-61
2021/01/29 04:24:09;;;;;;;0.40;0.20;;;22.60;32.00;;;;;;5031375;28;20442;-61
2021/01/29 04:26:51;;;;;;;0.35;0.20;;;22.50;32.10;;;;;;5028925;28;20419;-61
2021/01/29 04:29:27;;;;;;;0.40;0.30;;;22.50;32.10;;;;;;5031139;28;20414;-63
2021/01/29 04:31:58;;;;;;;0.77;0.30;;;22.50;32.80;;;;;;5030960;28;20786;-60
2021/01/29 04:34:28;;;;;;;1.70;0.40;;;22.40;32.10;;;;;;5030223;28;20395;-61
2021/01/29 04:36:56;;;;;;;1.20;0.30;;;22.40;32.40;;;;;;5030947;28;20422;-61
2021/01/29 04:39:39;;;;;;;0.95;0.30;;;22.40;32.40;;;;;;5031281;28;20383;-61
2021/01/29 04:42:22;;;;;;;0.95;0.30;;;22.40;32.40;;;;;;5031290;28;20395;-60
2021/01/29 04:45:13;;;;;;;0.63;0.20;;;22.40;32.40;;;;;;5030712;28;20387;-62
2021/01/29 04:47:43;;;;;;;0.65;0.20;;;22.40;32.40;;;;;;5031268;28;20452;-60
2021/01/29 04:50:26;;;;;;;0.57;0.30;;;22.40;33.00;;;;;;5031168;28;20825;-60
2021/01/29 04:53:30;;;;;;;0.45;0.20;;;22.40;32.40;;;;;;5030096;28;20379;-62
2021/01/29 04:56:08;;;;;;;0.43;0.20;;;22.40;32.40;;;;;;5024355;28;20514;-62
2021/01/29 04:58:45;;;;;;;0.38;0.20;;;22.30;32.40;;;;;;5028766;28;20391;-61
2021/01/29 05:01:36;;;;;;;0.25;0.10;;;22.30;32.30;;;;;;5029081;28;20383;-60
2021/01/29 05:04:29;;;;;;;0.40;0.17;;;22.30;32.40;;;;;;5028531;28;20391;-60
2021/01/29 05:07:29;;;;;;;0.30;0.20;;;22.30;32.70;;;;;;5029480;28;20802;-61
2021/01/29 05:10:00;;;;;;;0.20;0.15;;;22.30;32.40;;;;;;5030977;28;20427;-60
2021/01/29 05:12:50;;;;;;;0.93;0.30;;;22.30;32.40;;;;;;5031120;28;20909;-60
2021/01/29 05:15:40;;;;;;;0.47;0.20;;;22.30;32.50;;;;;;5031121;28;20431;-62
2021/01/29 05:18:33;;;;;;;0.43;0.20;;;22.20;32.30;;;;;;5031388;28;20395;-60
2021/01/29 05:21:28;;;;;;;0.30;0.20;;;22.20;32.40;;;;;;5034716;28;20875;-60
2021/01/29 05:24:10;;;;;;;0.60;0.22;;;22.20;32.40;;;;;;5034669;28;20414;-60
2021/01/29 05:27:05;;;;;;;0.20;0.10;;;22.20;32.50;;;;;;5034263;28;20387;-61
2021/01/29 05:29:45;;;;;;;0.50;0.20;;;22.20;32.40;;;;;;5034567;28;20438;-60
2021/01/29 05:32:49;;;;;;;0.40;0.20;;;22.20;32.50;;;;;;5034620;28;20439;-60
2021/01/29 05:35:31;;;;;;;0.43;0.20;;;22.20;32.40;;;;;;5034475;28;20532;-60
2021/01/29 05:38:35;;;;;;;0.30;0.10;;;22.10;32.50;;;;;;5033197;28;20529;-60
2021/01/29 05:41:15;;;;;;;0.20;0.10;;;22.10;32.50;;;;;;5034363;28;20394;-60
2021/01/29 05:43:59;;;;;;;0.30;0.20;;;22.10;32.50;;;;;;5034479;28;20390;-60
2021/01/29 05:46:32;;;;;;;0.80;0.20;;;22.10;32.50;;;;;;5034317;28;20433;-60
2021/01/29 05:49:22;;;;;;;0.60;0.40;;;22.10;32.50;;;;;;5032428;28;20502;-60
2021/01/29 05:51:54;;;;;;;1.25;0.60;;;22.10;32.60;;;;;;5033673;28;20929;-60
2021/01/29 05:54:37;;;;;;;0.80;0.40;;;22.00;32.50;;;;;;5034179;28;20422;-60
2021/01/29 05:57:28;;;;;;;1.13;0.43;;;22.00;32.50;;;;;;5033914;28;20401;-60
2021/01/29 06:00:23;;;;;;;1.20;0.50;;;22.00;32.60;;;;;;5033961;28;20398;-60
2021/01/29 06:03:18;;;;;;;1.13;0.50;;;22.00;32.60;;;;;;5033464;28;20473;-61
2021/01/29 06:05:55;;;;;;;1.38;0.50;;;22.00;32.60;;;;;;5033567;28;20435;-60
2021/01/29 06:08:36;;;;;;;1.17;0.52;;;21.90;32.60;;;;;;5033482;28;20401;-60
2021/01/29 06:11:01;;;;;;;1.40;0.60;;;22.00;32.70;;;;;;5033758;28;20421;-60
2021/01/29 06:13:45;;;;;;;2.43;0.53;;;21.90;33.20;;;;;;5033788;28;20383;-60
2021/01/29 06:16:20;;;;;;;1.83;0.55;;;21.90;33.60;;;;;;5033777;28;20383;-61
2021/01/29 06:18:57;;;;;;;1.55;0.70;;;22.00;33.50;;;;;;5032619;28;20391;-61
2021/01/29 06:21:46;;;;;;;1.67;0.50;;;21.90;34.10;;;;;;5006688;28;20473;-60
2021/01/29 06:24:38;;;;;;;2.25;0.57;;;21.90;34.50;;;;;;5034009;28;20462;-60
2021/01/29 06:27:30;;;;;;;1.50;0.50;;;22.00;34.60;;;;;;5032193;28;20478;-61
2021/01/29 06:29:55;;;;;;;1.73;0.67;;;22.00;34.40;;;;;;5033276;28;20602;-60
2021/01/29 06:32:39;;;;;;;3.45;0.50;;;22.00;35.50;;;;;;5016650;28;20496;-60
2021/01/29 06:35:29;;;;;;;3.00;0.50;;;22.00;36.40;;;;;;5031317;28;20406;-60
2021/01/29 06:38:30;;;;;;;1.53;0.43;;;22.10;36.80;;;;;;5014930;28;20487;-60
2021/01/29 06:42:04;;;;;;;3.58;0.60;;;22.10;37.60;;;;;;4989142;28;20402;-61
2021/01/29 06:44:39;;;;;;;5.47;0.63;;;22.10;37.80;;;;;;4970805;28;20950;-61
2021/01/29 06:47:29;;;;;;;2.33;0.90;;;22.10;36.70;;;;;;4968469;28;20529;-60
2021/01/29 06:50:25;;;;;;;3.30;0.70;;;22.10;37.00;;;;;;5012029;28;20430;-61
2021/01/29 06:53:15;;;;;;;2.42;0.65;;;22.10;36.90;;;;;;5032535;28;20843;-61
2021/01/29 06:56:08;;;;;;;3.43;0.77;;;22.00;36.80;;;;;;5015117;28;20465;-61
2021/01/29 06:59:02;;;;;;;5.90;0.80;;;22.00;36.80;;;;;;5014257;28;20870;-61
2021/01/29 07:01:42;;;;;;;5.00;0.70;;;22.00;37.50;;;;;;5026166;28;21251;-61
2021/01/29 07:04:26;;;;;;;4.10;0.90;;;22.10;38.40;;;;;;5021657;28;20434;-61
2021/01/29 07:07:04;;;;;;;1.95;0.63;;;22.00;39.10;;;;;;5031592;28;20399;-62
2021/01/29 07:09:48;;;;;;;3.10;0.60;;;22.00;39.00;;;;;;5032219;28;20445;-60
2021/01/29 07:12:22;;;;;;;2.45;0.55;;;22.00;38.70;;;;;;5032471;28;20398;-60
2021/01/29 07:15:01;;;;;;;3.55;1.20;;;22.10;39.30;;;;;;5014379;28;20466;-61
2021/01/29 07:17:54;;;;;;;3.35;1.00;;;22.20;38.30;;;;;;5032291;28;20402;-59
2021/01/29 07:20:47;;;;;;;3.78;1.10;;;22.10;37.70;;;;;;5032463;28;20478;-59
2021/01/29 07:23:25;;;;;;;2.10;0.63;;;22.00;36.80;;;;;;5032103;28;20390;-60
2021/01/29 07:26:29;;;;;;;3.05;0.70;;;22.00;37.10;;;;;;5014567;28;20414;-59
2021/01/29 07:29:10;;;;;;;3.83;0.90;;;21.90;36.50;;;;;;5031500;28;20433;-60
2021/01/29 07:32:11;;;;;;;2.30;0.80;;;21.90;36.10;;;;;;5032231;28;20478;-59
2021/01/29 07:34:45;;;;;;;1.98;0.70;;;21.80;35.70;;;;;;5032030;28;20432;-60
2021/01/29 07:37:38;;;;;;;1.92;0.70;;;21.80;35.60;;;;;;5014320;28;20448;-65
2021/01/29 07:40:15;;;;;;;1.83;0.70;;;21.80;35.40;;;;;;5032003;28;20383;-59
2021/01/29 07:43:08;;;;;;;3.15;0.70;;;21.80;35.50;;;;;;5013378;28;20417;-60
2021/01/29 07:45:59;;;;;;;1.98;0.60;;;21.80;35.20;;;;;;5031995;28;20394;-61
2021/01/29 07:48:40;;;;;;;4.38;0.70;;;21.80;35.20;;;;;;5014233;28;20387;-59
2021/01/29 07:51:13;;;;;;;1.92;0.65;;;21.80;35.20;;;;;;5031856;28;20755;-60
2021/01/29 07:53:53;;;;;;;2.47;0.98;;;21.80;35.30;;;;;;5031940;28;20744;-59
2021/01/29 07:58:51;;;;;;;1.50;0.77;;;21.70;34.80;;;;;;4932586;27;20721;-60
2021/01/29 08:01:34;;;;;;;4.90;0.75;;;21.70;34.80;;;;;;5042962;28;20391;-60
2021/01/29 08:04:25;;;;;;;1.80;0.77;;;21.60;35.00;;;;;;5017602;28;20475;-61
2021/01/29 08:07:14;;;;;;;3.63;0.80;;;21.60;35.50;;;;;;5046803;28;20724;-61
2021/01/29 08:09:44;;;;;;;3.27;0.90;;;21.60;36.40;;;;;;5048618;28;20378;-60
2021/01/29 08:12:15;;;;;;;2.33;0.80;;;21.70;37.10;;;;;;5048680;28;20443;-65
2021/01/29 08:15:11;;;;;;;2.13;0.90;;;21.70;37.10;;;;;;5037162;28;21340;-67
2021/01/29 08:18:01;;;;;;;3.30;1.20;;;21.70;36.60;;;;;;5027237;28;20762;-67
2021/01/29 08:20:46;;;;;;;3.42;1.00;;;21.70;37.10;;;;;;5028539;28;20809;-63
2021/01/29 08:23:21;;;;;;;4.65;1.20;;;21.70;37.30;;;;;;5028540;28;21104;-64
2021/01/29 08:26:06;;;;;;;3.80;0.80;;;21.60;37.60;;;;;;5028093;28;20428;-67
2021/01/29 08:28:47;;;;;;;4.87;0.87;;;21.60;37.70;;;;;;5027154;28;20807;-60
2021/01/29 08:31:54;;;;;;;6.28;0.90;;;21.60;37.80;;;;;;5028383;28;20388;-60
2021/01/29 08:34:41;;;;;;;2.85;0.95;;;21.60;37.50;;;;;;5043721;28;20437;-67
2021/01/29 08:37:23;;;;;;;5.03;0.90;;;21.60;37.60;;;;;;5043424;28;20428;-67
2021/01/29 08:40:18;;;;;;;1.77;0.80;;;21.60;37.60;;;;;;5043293;28;20753;-66
2021/01/29 08:43:08;;;;;;;2.65;0.90;;;21.60;36.90;;;;;;5008307;28;20409;-61
2021/01/29 08:45:47;;;;;;;3.88;1.00;;;21.60;37.20;;;;;;5028216;28;20475;-67
2021/01/29 08:48:21;;;;;;;3.63;0.98;;;21.60;37.40;;;;;;5028053;28;20392;-67
2021/01/29 08:51:09;;;;;;;2.67;0.82;;;21.50;37.10;;;;;;5027563;28;20392;-67
2021/01/29 08:54:22;;;;;;;1.98;0.90;;;21.50;37.30;;;;;;5028045;28;20855;-68
2021/01/29 08:57:09;;;;;;;2.20;0.80;;;21.50;36.20;;;;;;5032923;28;20414;-67
2021/01/29 08:59:38;;;;;;;2.03;0.80;;;21.50;36.70;;;;;;5047756;28;20391;-60
2021/01/29 09:02:18;;;;;;;1.55;0.70;;;21.50;36.50;;;;;;5046402;28;20425;-66
2021/01/29 09:04:47;;;;;;;1.60;0.70;;;21.40;35.80;;;;;;5045873;28;20452;-62
2021/01/29 09:07:25;;;;;;;2.20;1.02;;;21.30;36.30;;;;;;5047500;28;20395;-61
2021/01/29 09:09:52;;;;;;;5.50;0.93;;;21.30;36.20;;;;;;5008362;28;20482;-60
2021/01/29 09:12:26;;;;;;;3.72;0.80;;;21.30;36.30;;;;;;5033073;28;20395;-60
2021/01/29 09:15:16;;;;;;;3.25;0.82;;;21.30;36.40;;;;;;5033655;28;20441;-60
2021/01/29 09:18:03;;;;;;;12.85;1.65;;;21.40;36.60;;;;;;5034132;28;20419;-65
2021/01/29 09:20:43;;;;;;;9.50;1.40;;;21.50;35.90;;;;;;5034055;28;20738;-60
2021/01/29 09:23:29;;;;;;;7.60;1.35;;;21.50;35.60;;;;;;5033686;28;20414;-63
2021/01/29 09:26:12;;;;;;;4.72;1.30;;;21.60;35.80;;;;;;5033771;28;20525;-63
2021/01/29 09:28:41;;;;;;;6.05;1.40;;;21.70;36.10;;;;;;5033524;28;20379;-62
2021/01/29 09:31:12;;;;;;;5.33;1.33;;;21.80;36.90;;;;;;5033593;28;20391;-60
2021/01/29 09:33:56;;;;;;;4.68;1.40;;;21.80;37.10;;;;;;5034015;28;20898;-60
2021/01/29 09:36:33;;;;;;;4.70;2.00;;;21.90;37.60;;;;;;5033798;28;20394;-61
2021/01/29 09:39:07;;;;;;;4.15;1.83;;;22.00;38.00;;;;;;5014996;28;20399;-60
2021/01/29 09:41:47;;;;;;;3.53;1.35;;;22.00;38.20;;;;;;5033621;28;20444;-64
2021/01/29 09:44:26;;;;;;;4.03;1.58;;;22.10;37.80;;;;;;5033641;28;20383;-60
2021/01/29 09:46:58;;;;;;;3.88;1.40;;;22.20;37.50;;;;;;5036062;28;20413;-60
2021/01/29 09:49:36;;;;;;;3.28;1.30;;;22.20;37.00;;;;;;5050327;28;20394;-62
2021/01/29 09:52:28;;;;;;;5.90;1.40;;;22.20;37.00;;;;;;5034440;28;20397;-61
2021/01/29 09:55:09;;;;;;;5.07;1.30;;;22.20;36.70;;;;;;5051636;28;20397;-61
2021/01/29 09:57:44;;;;;;;3.60;1.30;;;22.20;36.40;;;;;;5051673;28;20520;-61
2021/01/29 10:00:27;;;;;;;5.22;1.20;;;22.10;36.40;;;;;;5053163;28;20447;-60
2021/01/29 10:03:01;;;;;;;4.57;1.35;;;22.10;36.10;;;;;;5052731;28;20404;-61
2021/01/29 10:05:37;;;;;;;4.82;1.27;;;22.10;36.70;;;;;;5035316;28;20385;-61
2021/01/29 10:08:16;;;;;;;3.63;0.95;;;22.20;36.20;;;;;;5035057;28;20422;-60
2021/01/29 10:11:10;;;;;;;3.17;1.00;;;22.20;36.20;;;;;;5052862;28;20378;-60
2021/01/29 10:13:53;;;;;;;3.72;1.10;;;22.20;36.10;;;;;;5051832;28;20398;-60
2021/01/29 10:16:37;;;;;;;3.28;1.10;;;22.20;35.70;;;;;;5052879;28;20427;-60
2021/01/29 10:19:08;;;;;;;3.55;0.70;;;22.20;35.70;;;;;;5052455;28;20385;-61
2021/01/29 10:21:59;;;;;;;2.90;0.80;;;22.20;35.70;;;;;;5051953;28;20659;-61
2021/01/29 10:24:49;;;;;;;2.20;1.02;;;22.20;35.50;;;;;;5052593;28;20390;-61
2021/01/29 10:27:32;;;;;;;3.13;0.80;;;22.20;35.30;;;;;;5052752;28;20408;-61
2021/01/29 10:30:33;;;;;;;2.00;0.80;;;22.20;35.30;;;;;;5052616;28;20388;-61
2021/01/29 10:33:06;;;;;;;1.73;0.70;;;22.20;35.20;;;;;;5014003;28;20398;-61
2021/01/29 10:35:42;;;;;;;1.75;0.60;;;22.20;35.00;;;;;;5052666;28;20405;-61
2021/01/29 10:38:25;;;;;;;1.77;0.68;;;22.20;35.10;;;;;;5052407;28;20436;-60
2021/01/29 10:41:20;;;;;;;2.10;0.80;;;22.20;34.90;;;;;;5034141;28;20381;-61
2021/01/29 10:43:59;;;;;;;2.03;0.70;;;22.20;34.80;;;;;;5052399;28;20523;-61
2021/01/29 10:46:59;;;;;;;2.05;0.80;;;22.20;34.60;;;;;;5052543;28;20385;-60
2021/01/29 10:49:49;;;;;;;2.78;0.70;;;22.20;34.00;;;;;;5052327;28;20881;-61
2021/01/29 10:52:33;;;;;;;2.45;0.60;;;22.10;34.80;;;;;;5049261;28;20408;-63
2021/01/29 10:55:01;;;;;;;3.17;0.70;;;22.10;34.70;;;;;;5040802;28;20394;-60
2021/01/29 10:57:46;;;;;;;2.83;0.85;;;22.10;34.90;;;;;;5014380;28;20446;-62
2021/01/29 11:00:19;;;;;;;2.40;0.60;;;22.10;34.40;;;;;;5032234;28;20383;-65
2021/01/29 11:02:58;;;;;;;2.90;0.65;;;22.10;34.60;;;;;;5014240;28;20431;-62
2021/01/29 11:05:28;;;;;;;2.30;0.63;;;22.10;34.50;;;;;;5032195;28;20386;-61
2021/01/29 11:08:04;;;;;;;1.73;0.50;;;22.10;34.40;;;;;;5030813;28;20550;-61
2021/01/29 11:10:33;;;;;;;3.22;0.50;;;22.10;34.30;;;;;;5032114;28;20384;-67
2021/01/29 11:13:10;;;;;;;3.92;0.60;;;22.10;34.80;;;;;;5031429;28;20414;-65
2021/01/29 11:15:54;;;;;;;2.83;0.70;;;22.20;34.40;;;;;;5031993;28;20394;-68
2021/01/29 11:18:29;;;;;;;2.30;0.50;;;22.20;34.30;;;;;;5031812;28;20476;-68
2021/01/29 11:21:37;;;;;;;1.63;0.52;;;22.20;34.20;;;;;;5030082;28;20395;-61
2021/01/29 11:24:13;;;;;;;1.50;0.40;;;22.20;34.10;;;;;;5005402;28;20468;-61
2021/01/29 11:26:54;;;;;;;2.80;0.50;;;22.20;34.10;;;;;;5031802;28;20400;-67
2021/01/29 11:29:38;;;;;;;2.30;0.60;;;22.20;34.00;;;;;;5030567;28;20438;-68
2021/01/29 11:32:22;;;;;;;1.45;0.40;;;22.20;33.90;;;;;;5029315;28;20403;-68
2021/01/29 11:34:55;;;;;;;3.40;0.60;;;22.20;34.00;;;;;;5046276;28;20391;-62
2021/01/29 11:37:53;;;;;;;2.92;0.50;;;22.20;34.00;;;;;;5031436;28;20774;-67
2021/01/29 11:40:24;;;;;;;2.47;0.47;;;22.20;34.00;;;;;;4986100;28;20493;-66
2021/01/29 11:42:52;;;;;;;2.97;0.57;;;22.20;34.10;;;;;;5029695;28;20421;-60
2021/01/29 11:45:26;;;;;;;3.38;0.60;;;22.10;34.00;;;;;;5031348;28;20387;-60
2021/01/29 11:48:07;;;;;;;2.97;0.50;;;22.10;34.10;;;;;;5027492;28;20431;-62
2021/01/29 11:50:41;;;;;;;3.70;0.52;;;22.10;34.20;;;;;;5031339;28;20402;-60
2021/01/29 11:53:22;;;;;;;3.23;0.50;;;22.00;34.20;;;;;;5040611;28;20400;-67
2021/01/29 11:55:59;;;;;;;2.70;0.40;;;22.00;34.30;;;;;;5051247;28;20393;-61
2021/01/29 11:58:54;;;;;;;1.43;0.50;;;21.90;34.40;;;;;;5033080;28;20766;-61
2021/01/29 12:01:42;;;;;;;2.88;0.70;;;21.90;34.30;;;;;;5051191;28;20745;-61
2021/01/29 12:04:20;;;;;;;1.42;0.43;;;21.90;34.50;;;;;;5022273;28;21020;-61
2021/01/29 12:06:58;;;;;;;1.90;0.50;;;21.90;35.00;;;;;;5044971;28;20515;-61
2021/01/29 12:09:47;;;;;;;1.88;0.45;;;21.90;34.40;;;;;;5044599;28;20476;-61
2021/01/29 12:12:55;;;;;;;1.63;0.30;;;22.00;34.40;;;;;;5046366;28;20910;-60
2021/01/29 12:15:41;;;;;;;2.78;0.60;;;22.00;34.40;;;;;;5018017;28;20409;-60
2021/01/29 12:18:10;;;;;;;2.47;0.40;;;22.00;34.40;;;;;;5045445;28;20416;-61
2021/01/29 12:20:40;;;;;;;1.00;0.40;;;22.00;34.30;;;;;;5043959;28;20745;-61
2021/01/29 12:23:28;;;;;;;2.13;0.50;;;22.00;34.30;;;;;;5046153;28;20460;-61
2021/01/29 12:26:15;;;;;;;1.83;0.40;;;22.00;34.30;;;;;;5045567;28;20408;-60
2021/01/29 12:28:59;;;;;;;1.02;0.40;;;22.00;34.30;;;;;;5044192;28;20876;-61
2021/01/29 12:31:43;;;;;;;1.98;0.50;;;22.00;34.30;;;;;;5045326;28;20432;-61
2021/01/29 12:34:32;;;;;;;1.57;0.37;;;22.00;34.20;;;;;;5046304;28;20448;-61
2021/01/29 12:37:17;;;;;;;2.83;0.52;;;22.00;34.30;;;;;;5046070;28;20453;-61
2021/01/29 12:39:54;;;;;;;2.83;0.45;;;22.00;34.30;;;;;;5043681;28;20909;-61
2021/01/29 12:42:38;;;;;;;0.80;0.35;;;22.00;34.20;;;;;;5044598;28;20464;-60
2021/01/29 12:45:26;;;;;;;0.70;0.40;;;22.00;34.20;;;;;;5047768;28;20472;-61
2021/01/29 12:48:22;;;;;;;0.85;0.40;;;22.00;34.20;;;;;;5018351;28;20404;-61
2021/01/29 12:51:06;;;;;;;1.13;0.32;;;22.00;34.20;;;;;;5031024;28;20401;-61
2021/01/29 12:53:41;;;;;;;1.30;0.30;;;22.00;34.20;;;;;;5049387;28;20512;-61
2021/01/29 12:56:19;;;;;;;1.77;0.60;;;22.00;34.20;;;;;;5048607;28;20390;-62
2021/01/29 12:58:52;;;;;;;1.00;0.30;;;21.90;34.20;;;;;;5047976;28;20526;-60
2021/01/29 13:01:52;;;;;;;1.63;0.30;;;21.90;34.20;;;;;;5047438;28;20394;-60
2021/01/29 13:04:45;;;;;;;2.20;0.40;;;21.90;34.20;;;;;;5041282;28;20424;-60
2021/01/29 13:07:25;;;;;;;1.40;0.40;;;21.90;34.80;;;;;;5039985;28;20405;-61
2021/01/29 13:10:06;;;;;;;1.05;0.25;;;21.90;34.10;;;;;;5050635;28;20401;-61
2021/01/29 13:12:32;;;;;;;3.42;0.40;;;21.90;34.20;;;;;;5050565;28;20592;-61
2021/01/29 13:15:14;;;;;;;2.83;0.40;;;22.00;34.20;;;;;;5032228;28;20488;-61
2021/01/29 13:17:43;;;;;;;1.70;0.40;;;22.00;34.10;;;;;;5050912;28;20420;-61
2021/01/29 13:20:11;;;;;;;0.60;0.30;;;22.00;34.10;;;;;;5032735;28;20450;-60
2021/01/29 13:22:44;;;;;;;1.90;0.40;;;22.00;34.20;;;;;;5050721;28;20781;-61
2021/01/29 13:25:09;;;;;;;1.58;0.32;;;22.00;34.20;;;;;;5049339;28;20385;-61
2021/01/29 13:28:05;;;;;;;3.37;0.50;;;22.00;34.20;;;;;;5052657;28;20400;-61
2021/01/29 13:30:38;;;;;;;2.50;0.40;;;22.00;34.30;;;;;;5052142;28;20389;-61
2021/01/29 13:33:25;;;;;;;2.10;0.30;;;22.00;34.30;;;;;;5051735;28;20389;-60
2021/01/29 13:36:22;;;;;;;1.55;0.40;;;22.00;34.40;;;;;;5052206;28;20964;-61
2021/01/29 13:38:48;;;;;;;0.75;0.30;;;22.00;34.30;;;;;;5050673;28;20468;-61
2021/01/29 13:41:22;;;;;;;1.40;0.30;;;22.10;34.20;;;;;;5050457;28;20837;-61
2021/01/29 13:43:48;;;;;;;1.80;0.47;;;22.10;34.20;;;;;;5032115;28;20413;-59
2021/01/29 13:46:29;;;;;;;1.27;0.30;;;22.10;34.20;;;;;;5049797;28;20508;-61
2021/01/29 13:49:11;;;;;;;0.63;0.38;;;22.10;34.10;;;;;;5049831;28;20397;-61
2021/01/29 13:51:37;;;;;;;1.55;0.40;;;22.10;34.10;;;;;;5050419;28;20397;-60
2021/01/29 13:54:03;;;;;;;1.38;0.40;;;22.10;34.00;;;;;;5049982;28;21058;-61
2021/01/29 13:56:48;;;;;;;1.10;0.30;;;22.10;34.00;;;;;;5050069;28;20466;-61